Time;durP1;ratioP1;P1;durP2;ratioP2;P2;SDS_P1;SDS_P2;PMS_P1;PMS_P2;Temp;Humidity;BMP_temperature;BMP_pressure;BME280_temperature;BME280_humidity;BME280_pressure;Samples;Min_cycle;Max_cycle;Signal;HPM_P1;HPM_P2
2022/04/09 00:01:09;;;;;;;8.80;1.83;;;;;;;8.03;51.48;100297.09;4936876;28;124502;-69
2022/04/09 00:03:36;;;;;;;7.32;1.70;;;;;;;8.03;51.72;100308.47;4941287;28;123003;-69
2022/04/09 00:06:05;;;;;;;8.27;1.70;;;;;;;8.04;51.80;100309.34;4931965;28;114403;-69
2022/04/09 00:08:32;;;;;;;9.32;1.73;;;;;;;8.05;51.59;100316.34;4933453;28;113936;-69
2022/04/09 00:10:59;;;;;;;11.35;2.03;;;;;;;8.05;51.53;100317.19;4937771;28;123670;-68
2022/04/09 00:13:26;;;;;;;6.53;1.73;;;;;;;8.05;51.71;100316.34;4945459;28;124069;-68
2022/04/09 00:15:53;;;;;;;10.35;1.75;;;;;;;8.05;51.43;100326.88;4951860;28;114171;-68
2022/04/09 00:18:20;;;;;;;10.40;1.75;;;;;;;8.05;51.80;100321.63;4934206;28;114093;-68
2022/04/09 00:20:49;;;;;;;6.88;1.50;;;;;;;8.05;51.86;100326.88;4958436;28;123346;-68
2022/04/09 00:23:18;;;;;;;10.90;2.20;;;;;;;8.06;52.09;100339.13;4932171;28;124255;-69
2022/04/09 00:25:46;;;;;;;7.95;1.70;;;;;;;8.07;51.96;100335.59;4936540;28;114156;-69
2022/04/09 00:28:13;;;;;;;9.38;1.73;;;;;;;8.07;51.96;100341.72;4936889;28;114007;-69
2022/04/09 00:30:41;;;;;;;8.20;1.50;;;;;;;8.08;51.90;100345.19;4939754;28;124056;-68
2022/04/09 00:33:09;;;;;;;11.13;1.55;;;;;;;8.07;52.07;100352.25;4941605;28;123775;-69
2022/04/09 00:35:36;;;;;;;10.95;1.63;;;;;;;8.06;51.91;100361.13;4938697;28;114149;-69
2022/04/09 00:38:03;;;;;;;12.27;1.88;;;;;;;8.06;52.00;100366.38;4954195;28;113211;-68
2022/04/09 00:40:30;;;;;;;7.05;1.60;;;;;;;8.08;52.06;100371.56;4933045;28;124616;-69
2022/04/09 00:42:57;;;;;;;12.35;1.73;;;;;;;8.09;51.85;100370.66;4934107;28;123297;-68
2022/04/09 00:45:25;;;;;;;10.23;1.20;;;;;;;8.11;52.01;100374.09;4948579;28;115368;-68
2022/04/09 00:47:52;;;;;;;8.30;1.60;;;;;;;8.12;51.69;100381.09;4957922;28;114222;-68
2022/04/09 00:50:19;;;;;;;7.18;1.58;;;;;;;8.13;52.14;100377.50;4927737;28;124265;-68
2022/04/09 00:52:49;;;;;;;8.98;1.45;;;;;;;8.14;51.93;100389.78;4937636;28;125004;-68
2022/04/09 00:55:19;;;;;;;11.20;1.77;;;;;;;8.16;51.95;100390.59;4938092;28;114367;-68
2022/04/09 00:57:50;;;;;;;6.18;1.40;;;;;;;8.16;52.08;100393.22;4934887;28;113032;-69
2022/04/09 01:00:18;;;;;;;8.27;1.20;;;;;;;8.18;52.28;100396.66;4958182;28;123255;-69
2022/04/09 01:02:45;;;;;;;6.10;1.42;;;;;;;8.18;51.87;100397.50;4954301;28;122921;-70
2022/04/09 01:05:13;;;;;;;6.88;1.25;;;;;;;8.19;52.20;100398.34;4948602;28;113138;-69
2022/04/09 01:07:40;;;;;;;6.30;1.35;;;;;;;8.21;51.83;100395.66;4953284;28;113274;-69
2022/04/09 01:10:11;;;;;;;10.20;1.60;;;;;;;8.21;52.10;100417.59;4953902;28;124332;-69
2022/04/09 01:12:38;;;;;;;7.70;1.35;;;;;;;8.21;51.76;100422.88;4950869;28;123460;-69
2022/04/09 01:15:08;;;;;;;5.88;1.30;;;;;;;8.21;52.10;100412.31;4953479;28;113844;-68
2022/04/09 01:17:36;;;;;;;5.78;1.35;;;;;;;8.20;52.00;100415.91;4952201;28;113156;-68
2022/04/09 01:20:21;;;;;;;6.50;1.50;;;;;;;8.19;52.14;100425.59;4938366;28;123081;-69
2022/04/09 01:22:51;;;;;;;7.70;1.60;;;;;;;8.18;51.97;100429.16;4932222;28;122724;-68
2022/04/09 01:25:19;;;;;;;8.00;1.50;;;;;;;8.18;51.80;100433.59;4951102;28;113366;-68
2022/04/09 01:27:49;;;;;;;11.82;1.48;;;;;;;8.16;51.88;100440.69;4949279;28;113371;-68
2022/04/09 01:30:17;;;;;;;7.70;1.58;;;;;;;8.17;51.87;100447.69;4934924;28;124310;-68
2022/04/09 01:32:46;;;;;;;6.00;1.50;;;;;;;8.17;52.00;100442.41;4933378;28;123111;-68
2022/04/09 01:35:14;;;;;;;6.70;1.52;;;;;;;8.17;52.40;100452.97;4933197;28;115499;-70
2022/04/09 01:37:41;;;;;;;8.55;1.33;;;;;;;8.18;52.36;100449.41;4946594;28;115223;-69
2022/04/09 01:40:09;;;;;;;7.25;1.27;;;;;;;8.17;52.26;100456.47;4932954;28;124037;-68
2022/04/09 01:42:38;;;;;;;6.03;1.20;;;;;;;8.19;52.33;100466.94;4954207;28;122099;-68
2022/04/09 01:45:07;;;;;;;11.50;1.52;;;;;;;8.18;52.36;100470.50;4937968;28;113663;-68
2022/04/09 01:47:40;;;;;;;11.00;1.60;;;;;;;8.19;52.28;100472.22;4935700;28;113686;-68
2022/04/09 01:50:09;;;;;;;8.57;1.40;;;;;;;8.20;52.45;100484.50;4935419;28;123259;-68
2022/04/09 01:52:39;;;;;;;13.88;1.48;;;;;;;8.20;52.27;100489.78;4948274;28;123036;-68
2022/04/09 01:55:07;;;;;;;6.10;1.05;;;;;;;8.21;52.14;100491.47;4934056;28;114457;-69
2022/04/09 01:57:38;;;;;;;7.72;1.50;;;;;;;8.20;52.19;100492.41;4937599;28;113022;-68
2022/04/09 02:00:10;;;;;;;6.10;1.25;;;;;;;8.22;52.32;100502.91;4949285;28;123074;-68
2022/04/09 02:02:42;;;;;;;6.00;1.13;;;;;;;8.21;52.07;100507.31;4948634;28;123227;-68
2022/04/09 02:05:12;;;;;;;10.80;1.40;;;;;;;8.22;52.30;100509.03;4933390;28;113698;-69
2022/04/09 02:07:42;;;;;;;9.65;1.42;;;;;;;8.22;52.23;100509.03;4949180;28;113144;-68
2022/04/09 02:10:11;;;;;;;9.57;1.73;;;;;;;8.22;52.35;100514.31;4953400;28;123644;-68
2022/04/09 02:12:41;;;;;;;9.93;1.40;;;;;;;8.23;52.12;100516.03;4934365;28;123613;-69
2022/04/09 02:15:15;;;;;;;8.18;1.50;;;;;;;8.23;52.27;100513.41;4955901;28;113990;-68
2022/04/09 02:17:44;;;;;;;11.15;1.52;;;;;;;8.22;51.91;100514.31;4952045;28;112977;-68
2022/04/09 02:20:12;;;;;;;6.25;1.40;;;;;;;8.22;52.03;100524.84;4942620;28;122969;-68
2022/04/09 02:22:45;;;;;;;12.07;1.52;;;;;;;8.21;52.36;100528.41;4956670;28;124136;-68
2022/04/09 02:25:15;;;;;;;12.00;1.50;;;;;;;8.21;52.21;100533.69;4940465;28;113690;-68
2022/04/09 02:27:44;;;;;;;10.65;1.85;;;;;;;8.19;52.08;100535.53;4943694;28;114943;-68
2022/04/09 02:30:15;;;;;;;9.18;1.42;;;;;;;8.18;51.95;100552.28;4949968;28;123569;-68
2022/04/09 02:32:51;;;;;;;9.40;1.33;;;;;;;8.18;52.41;100570.75;4954200;28;123415;-68
2022/04/09 02:35:23;;;;;;;7.10;1.70;;;;;;;8.17;52.15;100574.28;4937334;28;117266;-68
2022/04/09 02:37:51;;;;;;;8.48;1.60;;;;;;;8.18;52.34;100565.47;4936628;28;114062;-69
2022/04/09 02:40:20;;;;;;;9.88;1.65;;;;;;;8.18;52.23;100570.75;4948577;28;124756;-68
2022/04/09 02:42:50;;;;;;;9.02;1.77;;;;;;;8.19;52.25;100567.19;4938983;28;123601;-68
2022/04/09 02:45:17;;;;;;;12.75;1.70;;;;;;;8.19;52.31;100577.72;4938539;28;114251;-68
2022/04/09 02:47:45;;;;;;;8.13;1.33;;;;;;;8.21;52.42;100580.31;4948104;28;113012;-68
2022/04/09 02:50:16;;;;;;;9.32;1.95;;;;;;;8.21;52.46;100596.16;4947153;28;123679;-69
2022/04/09 02:52:45;;;;;;;6.40;1.67;;;;;;;8.21;52.60;100597.00;4949478;28;123329;-68
2022/04/09 02:55:14;;;;;;;8.48;1.48;;;;;;;8.22;52.74;100598.72;4959062;28;113561;-69
2022/04/09 02:57:42;;;;;;;8.10;1.30;;;;;;;8.23;52.66;100600.47;4958480;28;113133;-69
2022/04/09 03:00:12;;;;;;;10.27;1.98;;;;;;;8.26;52.23;100605.59;4957632;28;122913;-69
2022/04/09 03:02:42;;;;;;;6.22;1.30;;;;;;;8.27;52.55;100612.59;4955245;28;122965;-69
2022/04/09 03:05:21;;;;;;;10.90;1.50;;;;;;;8.27;52.13;100612.59;4953762;28;116766;-69
2022/04/09 03:07:48;;;;;;;7.53;1.42;;;;;;;8.25;52.46;100609.16;4933271;28;114656;-69
2022/04/09 03:10:15;;;;;;;8.55;2.42;;;;;;;8.23;52.14;100616.28;4944530;28;123998;-68
2022/04/09 03:12:44;;;;;;;8.02;1.63;;;;;;;8.19;52.59;100615.53;4935183;28;124945;-69
2022/04/09 03:15:13;;;;;;;6.97;1.38;;;;;;;8.16;52.47;100620.06;4934858;28;115639;-69
2022/04/09 03:17:41;;;;;;;10.68;1.52;;;;;;;8.15;52.41;100628.91;4950077;28;112990;-68
2022/04/09 03:20:09;;;;;;;11.25;1.63;;;;;;;8.13;52.44;100630.75;4939615;28;123403;-68
2022/04/09 03:22:36;;;;;;;7.13;1.33;;;;;;;8.12;52.62;100631.66;4938211;28;124061;-68
2022/04/09 03:25:04;;;;;;;5.88;1.25;;;;;;;8.12;52.66;100613.22;4952769;28;113892;-69
2022/04/09 03:27:33;;;;;;;8.73;1.52;;;;;;;8.12;52.69;100631.66;4950619;28;113263;-69
2022/04/09 03:30:02;;;;;;;6.60;1.40;;;;;;;8.13;52.89;100634.22;4936014;28;123279;-68
2022/04/09 03:32:36;;;;;;;6.88;1.25;;;;;;;8.15;52.92;100644.72;4952868;28;123223;-68
2022/04/09 03:35:07;;;;;;;6.82;1.25;;;;;;;8.14;52.37;100637.75;4949790;28;116450;-68
2022/04/09 03:37:35;;;;;;;6.28;1.60;;;;;;;8.15;52.63;100639.44;4934904;28;114100;-68
2022/04/09 03:40:05;;;;;;;7.35;1.95;;;;;;;8.15;52.54;100639.44;4937750;28;123319;-68
2022/04/09 03:42:33;;;;;;;9.63;1.38;;;;;;;8.16;52.85;100635.91;4941292;28;122941;-68
2022/04/09 03:45:01;;;;;;;8.88;1.15;;;;;;;8.16;52.62;100641.19;4938700;28;114527;-68
2022/04/09 03:47:31;;;;;;;3.97;1.27;;;;;;;8.15;52.46;100644.72;4954468;28;113157;-68
2022/04/09 03:50:01;;;;;;;5.97;1.40;;;;;;;8.16;52.66;100652.59;4938507;28;123116;-68
2022/04/09 03:52:28;;;;;;;5.60;1.17;;;;;;;8.16;52.42;100643.81;4952472;28;123102;-68
2022/04/09 03:54:56;;;;;;;5.75;1.20;;;;;;;8.16;52.34;100662.28;4950075;28;113303;-69
2022/04/09 03:57:23;;;;;;;7.97;1.33;;;;;;;8.15;52.59;100665.81;4930961;28;114313;-69
2022/04/09 03:59:55;;;;;;;6.03;0.88;;;;;;;8.13;52.59;100657.13;4951533;28;123130;-69
2022/04/09 04:02:22;;;;;;;5.72;1.10;;;;;;;8.13;52.63;100660.59;4951792;28;123509;-69
2022/04/09 04:04:52;;;;;;;9.13;1.40;;;;;;;8.15;52.65;100665.81;4957374;28;114791;-69
2022/04/09 04:07:22;;;;;;;6.88;1.20;;;;;;;8.14;52.34;100674.69;4935195;28;115038;-69
2022/04/09 04:09:50;;;;;;;5.80;1.20;;;;;;;8.14;52.59;100669.41;4936951;28;123069;-69
2022/04/09 04:12:19;;;;;;;8.15;1.88;;;;;;;8.13;52.41;100678.22;4955084;28;123228;-69
2022/04/09 04:14:46;;;;;;;8.85;1.42;;;;;;;8.11;52.31;100674.78;4952704;28;113384;-69
2022/04/09 04:17:14;;;;;;;4.82;1.20;;;;;;;8.10;52.51;100688.88;4957755;28;113568;-69
2022/04/09 04:19:41;;;;;;;7.45;1.98;;;;;;;8.08;52.60;100690.72;4941374;28;122238;-69
2022/04/09 04:22:08;;;;;;;9.02;1.40;;;;;;;8.06;52.56;100688.16;4953861;28;123726;-68
2022/04/09 04:24:37;;;;;;;6.30;1.50;;;;;;;8.06;52.66;100708.38;4965346;28;113340;-69
2022/04/09 04:27:06;;;;;;;9.63;1.02;;;;;;;8.05;52.56;100696.13;4958131;28;113579;-69
2022/04/09 04:29:34;;;;;;;7.25;1.10;;;;;;;8.03;52.52;100708.50;4952059;28;123379;-68
2022/04/09 04:32:02;;;;;;;6.82;1.33;;;;;;;8.02;52.33;100718.16;4949144;28;124372;-69
2022/04/09 04:34:30;;;;;;;7.95;1.42;;;;;;;8.02;52.76;100712.03;4953026;28;113702;-68
2022/04/09 04:36:57;;;;;;;11.27;1.25;;;;;;;8.01;52.35;100712.97;4957957;28;113244;-68
2022/04/09 04:39:26;;;;;;;5.45;1.15;;;;;;;8.01;52.35;100731.44;4950778;28;123309;-68
2022/04/09 04:41:53;;;;;;;6.35;1.58;;;;;;;8.01;52.25;100726.16;4941736;28;124343;-68
2022/04/09 04:44:24;;;;;;;5.97;1.08;;;;;;;7.99;52.71;100727.06;4951951;28;113516;-68
2022/04/09 04:46:55;;;;;;;6.35;1.38;;;;;;;7.97;52.42;100726.25;4954983;28;113068;-68
2022/04/09 04:49:24;;;;;;;6.65;1.38;;;;;;;7.96;52.26;100734.22;4950941;28;123267;-68
2022/04/09 04:51:58;;;;;;;11.02;1.75;;;;;;;7.92;52.50;100744.03;4948295;28;122729;-68
2022/04/09 04:54:25;;;;;;;9.10;1.20;;;;;;;7.88;52.61;100739.78;4937568;28;115130;-68
2022/04/09 04:56:53;;;;;;;10.15;1.40;;;;;;;7.84;52.15;100742.59;4950628;28;114399;-68
2022/04/09 04:59:20;;;;;;;10.55;1.20;;;;;;;7.80;52.17;100744.47;4948889;28;123476;-68
2022/04/09 05:01:47;;;;;;;6.70;1.30;;;;;;;7.75;52.26;100746.41;4938316;28;124221;-68
2022/04/09 05:04:17;;;;;;;6.53;1.40;;;;;;;7.72;52.27;100762.31;4941919;28;113667;-68
2022/04/09 05:06:54;;;;;;;9.02;1.33;;;;;;;7.69;52.49;100760.66;4952482;28;114244;-68
2022/04/09 05:09:23;;;;;;;6.68;1.45;;;;;;;7.66;52.57;100767.81;4949034;28;123629;-69
2022/04/09 05:11:54;;;;;;;4.07;1.40;;;;;;;7.62;52.57;100766.19;4949050;28;123077;-69
2022/04/09 05:14:27;;;;;;;6.63;1.70;;;;;;;7.58;52.34;100775.97;4936562;28;114300;-69
2022/04/09 05:16:59;;;;;;;7.43;1.23;;;;;;;7.56;52.59;100776.03;4949276;28;113258;-68
2022/04/09 05:19:30;;;;;;;7.97;1.60;;;;;;;7.52;52.77;100787.59;4951520;28;124165;-68
2022/04/09 05:22:04;;;;;;;8.20;1.50;;;;;;;7.50;52.34;100799.94;4932380;28;126958;-68
2022/04/09 05:24:36;;;;;;;4.22;1.50;;;;;;;7.47;52.91;100800.03;4953958;28;113419;-68
2022/04/09 05:27:03;;;;;;;7.78;1.33;;;;;;;7.46;52.73;100798.34;4938813;28;114163;-68
2022/04/09 05:29:33;;;;;;;7.57;1.48;;;;;;;7.47;52.98;100807.94;4952270;28;123657;-68
2022/04/09 05:32:02;;;;;;;7.65;1.63;;;;;;;7.47;52.92;100805.31;4949158;28;125952;-68
2022/04/09 05:34:29;;;;;;;9.27;1.67;;;;;;;7.48;52.82;100817.59;4936979;28;114606;-68
2022/04/09 05:36:56;;;;;;;9.05;2.53;;;;;;;7.51;53.05;100822.72;4949445;28;113267;-68
2022/04/09 05:39:24;;;;;;;8.23;1.73;;;;;;;7.51;53.12;100817.47;4954306;28;124164;-68
2022/04/09 05:41:55;;;;;;;14.70;1.88;;;;;;;7.53;53.29;100828.81;4935019;28;123621;-68
2022/04/09 05:44:23;;;;;;;8.20;1.85;;;;;;;7.54;52.97;100825.28;4957434;28;114343;-68
2022/04/09 05:46:50;;;;;;;7.28;1.65;;;;;;;7.54;53.21;100830.56;4957806;28;114642;-68
2022/04/09 05:49:18;;;;;;;14.10;2.13;;;;;;;7.57;52.91;100833.09;4957158;28;123928;-68
2022/04/09 05:51:47;;;;;;;7.55;1.50;;;;;;;7.60;53.12;100838.25;4951050;28;123086;-68
2022/04/09 05:54:16;;;;;;;7.00;1.60;;;;;;;7.64;53.30;100848.72;4957809;28;113158;-69
2022/04/09 05:56:46;;;;;;;6.47;1.50;;;;;;;7.70;53.38;100853.75;4957891;28;113171;-68
2022/04/09 05:59:13;;;;;;;8.27;1.50;;;;;;;7.78;53.37;100854.41;4933899;28;124349;-69
2022/04/09 06:01:49;;;;;;;7.65;1.55;;;;;;;7.88;53.54;100855.78;4939189;28;123882;-69
2022/04/09 06:04:19;;;;;;;8.73;1.65;;;;;;;7.95;53.45;100865.22;4959735;28;114111;-68
2022/04/09 06:06:48;;;;;;;8.00;1.30;;;;;;;8.03;53.60;100872.03;4944449;28;113318;-68
2022/04/09 06:09:21;;;;;;;7.05;1.23;;;;;;;8.08;53.55;100865.69;4957036;28;123362;-69
2022/04/09 06:11:54;;;;;;;8.52;1.60;;;;;;;8.16;53.43;100870.69;4953443;28;126515;-69
2022/04/09 06:14:32;;;;;;;4.45;1.10;;;;;;;8.24;53.29;100871.28;4954041;28;116058;-68
2022/04/09 06:17:03;;;;;;;6.22;1.45;;;;;;;8.33;53.36;100876.22;4955094;28;113570;-68
2022/04/09 06:19:31;;;;;;;6.63;1.30;;;;;;;8.43;53.56;100883.84;4959055;28;123347;-69
2022/04/09 06:21:59;;;;;;;6.47;1.30;;;;;;;8.50;53.35;100882.72;4956185;28;122825;-68
2022/04/09 06:24:27;;;;;;;6.88;1.58;;;;;;;8.57;53.44;100892.16;4961252;28;113733;-69
2022/04/09 06:26:54;;;;;;;7.05;1.55;;;;;;;8.63;53.38;100901.63;4939450;28;112847;-69
2022/04/09 06:29:22;;;;;;;6.88;1.88;;;;;;;8.65;53.13;100903.28;4949483;28;123672;-68
2022/04/09 06:31:53;;;;;;;8.63;1.65;;;;;;;8.71;53.24;100913.63;4933416;28;123012;-68
2022/04/09 06:34:21;;;;;;;9.95;2.10;;;;;;;8.77;53.22;100923.97;4958667;28;114325;-69
2022/04/09 06:36:50;;;;;;;9.20;1.95;;;;;;;8.87;53.23;100926.25;4948546;28;114162;-68
2022/04/09 06:39:19;;;;;;;8.95;1.77;;;;;;;8.90;53.36;100920.88;4953961;28;123670;-69
2022/04/09 06:41:49;;;;;;;8.57;1.80;;;;;;;8.97;53.19;100919.75;4951994;28;124119;-68
2022/04/09 06:44:25;;;;;;;6.93;1.95;;;;;;;9.06;53.27;100913.22;4951351;28;116638;-69
2022/04/09 06:46:58;;;;;;;7.75;1.75;;;;;;;9.20;53.57;100925.94;4940605;28;116582;-69
2022/04/09 06:49:29;;;;;;;9.18;1.50;;;;;;;9.33;53.53;100927.19;4951031;28;123495;-67
2022/04/09 06:52:09;;;;;;;5.75;1.30;;;;;;;9.46;53.36;100933.72;4952764;28;124012;-67
2022/04/09 06:54:55;;;;;;;9.48;1.50;;;;;;;9.62;53.28;100938.41;4934282;28;116589;-67
2022/04/09 06:57:23;;;;;;;5.68;1.50;;;;;;;9.78;53.19;100938.69;4954075;28;113292;-67
2022/04/09 06:59:50;;;;;;;6.90;1.50;;;;;;;9.90;53.12;100944.31;4929220;28;124273;-68
2022/04/09 07:02:18;;;;;;;4.93;1.27;;;;;;;10.01;52.76;100950.97;4947918;28;123241;-67
2022/04/09 07:04:45;;;;;;;5.40;1.05;;;;;;;10.10;52.47;100950.59;4935560;28;114123;-68
2022/04/09 07:07:12;;;;;;;3.85;1.00;;;;;;;10.19;52.74;100971.38;4938262;28;113760;-67
2022/04/09 07:09:39;;;;;;;5.53;1.25;;;;;;;10.26;52.11;100961.38;4954032;28;124090;-67
2022/04/09 07:12:08;;;;;;;5.55;1.00;;;;;;;10.30;52.19;100958.59;4941089;28;123903;-66
2022/04/09 07:14:35;;;;;;;2.17;0.60;;;;;;;10.30;52.04;100963.88;4938839;28;114390;-66
2022/04/09 07:17:03;;;;;;;3.28;0.80;;;;;;;10.28;51.49;100960.41;4954999;28;113167;-66
2022/04/09 07:19:31;;;;;;;2.97;1.00;;;;;;;10.26;51.44;100956.94;4934978;28;123963;-69
2022/04/09 07:22:00;;;;;;;4.15;1.08;;;;;;;10.25;51.31;100954.38;4934718;28;124783;-68
2022/04/09 07:24:27;;;;;;;3.88;1.05;;;;;;;10.22;51.13;100960.66;4937539;28;115216;-68
2022/04/09 07:26:55;;;;;;;4.53;1.00;;;;;;;10.20;50.96;100967.78;4934541;28;114701;-70
2022/04/09 07:29:22;;;;;;;2.67;0.80;;;;;;;10.21;51.15;100980.13;4935523;28;123887;-68
2022/04/09 07:31:50;;;;;;;3.05;0.98;;;;;;;10.26;51.23;100978.13;4937648;28;125245;-68
2022/04/09 07:34:18;;;;;;;3.45;0.80;;;;;;;10.38;51.72;100991.78;4944231;28;114257;-69
2022/04/09 07:36:45;;;;;;;4.10;0.60;;;;;;;10.51;51.75;101000.97;4938753;28;113934;-68
2022/04/09 07:39:13;;;;;;;2.10;0.77;;;;;;;10.62;51.57;101006.66;4940396;28;124068;-68
2022/04/09 07:41:41;;;;;;;4.10;0.65;;;;;;;10.66;51.20;101008.25;4942037;28;123443;-68
2022/04/09 07:44:08;;;;;;;4.10;0.70;;;;;;;10.65;50.84;101005.69;4951600;28;113254;-68
2022/04/09 07:46:35;;;;;;;5.70;0.80;;;;;;;10.63;50.76;101007.53;4934265;28;114070;-68
2022/04/09 07:49:02;;;;;;;2.22;0.77;;;;;;;10.68;50.90;101011.72;4929786;28;124629;-68
2022/04/09 07:51:30;;;;;;;3.78;0.75;;;;;;;10.79;51.01;101018.31;4929980;28;123780;-68
2022/04/09 07:53:57;;;;;;;2.53;0.80;;;;;;;10.89;50.86;101019.66;4932719;28;114205;-68
2022/04/09 07:56:24;;;;;;;5.18;1.10;;;;;;;10.97;51.13;101038.72;4930168;28;114957;-67
2022/04/09 07:58:51;;;;;;;2.33;0.80;;;;;;;10.98;51.05;101076.69;4952956;28;123447;-69
2022/04/09 08:01:18;;;;;;;2.03;0.70;;;;;;;10.90;50.33;101084.97;4940317;28;126877;-71
2022/04/09 08:03:46;;;;;;;2.20;0.60;;;;;;;10.67;50.15;101089.44;4938478;28;114086;-72
2022/04/09 08:06:14;;;;;;;1.08;0.40;;;;;;;10.40;49.84;101091.44;4943161;28;112782;-70
2022/04/09 08:08:41;;;;;;;0.85;0.50;;;;;;;10.12;50.47;101065.19;4937217;28;124748;-70
2022/04/09 08:11:10;;;;;;;0.70;0.32;;;;;;;9.89;50.28;101053.72;4931638;28;124240;-71
2022/04/09 08:13:37;;;;;;;0.68;0.50;;;;;;;9.74;50.83;101064.88;4936118;28;115236;-71
2022/04/09 08:16:04;;;;;;;1.08;0.40;;;;;;;9.62;50.78;101065.34;4936549;28;115331;-70
2022/04/09 08:18:31;;;;;;;0.90;0.43;;;;;;;9.53;51.03;101062.13;4964028;28;123392;-70
2022/04/09 08:21:03;;;;;;;1.60;0.50;;;;;;;9.48;51.17;101069.34;4940271;28;123614;-71
2022/04/09 08:23:31;;;;;;;2.63;0.75;;;;;;;9.42;51.61;101066.94;4933289;28;113986;-69
2022/04/09 08:26:00;;;;;;;5.10;1.00;;;;;;;9.37;51.54;101066.25;4934512;28;113741;-69
2022/04/09 08:28:31;;;;;;;3.75;0.70;;;;;;;9.35;51.82;101070.72;4934098;28;124033;-69
2022/04/09 08:30:59;;;;;;;2.30;0.90;;;;;;;9.35;52.22;101062.78;4935923;28;124111;-70
2022/04/09 08:33:27;;;;;;;2.53;1.05;;;;;;;9.43;52.55;101066.00;4938376;28;114058;-69
2022/04/09 08:35:54;;;;;;;5.57;1.38;;;;;;;9.56;53.19;101063.78;4953902;28;113272;-69
2022/04/09 08:38:22;;;;;;;5.10;1.40;;;;;;;9.72;53.42;101056.16;4939413;28;124755;-69
2022/04/09 08:40:50;;;;;;;5.80;1.48;;;;;;;9.88;53.54;101064.34;4952619;28;124361;-69
2022/04/09 08:43:17;;;;;;;6.32;1.20;;;;;;;9.99;53.51;101064.78;4957825;28;113500;-69
2022/04/09 08:45:44;;;;;;;8.93;2.00;;;;;;;10.11;53.60;101076.66;4933655;28;114158;-69
2022/04/09 08:48:14;;;;;;;3.92;1.50;;;;;;;10.21;53.49;101091.28;4945286;28;124764;-69
2022/04/09 08:50:43;;;;;;;6.88;1.60;;;;;;;10.31;53.81;101097.97;4930105;28;123253;-69
2022/04/09 08:53:11;;;;;;;3.40;1.50;;;;;;;10.42;53.80;101105.47;4932913;28;114119;-69
2022/04/09 08:55:40;;;;;;;5.00;1.40;;;;;;;10.49;53.60;101106.06;4930376;28;114399;-69
2022/04/09 08:58:07;;;;;;;3.42;0.70;;;;;;;10.53;53.10;101097.09;4937235;28;124510;-69
2022/04/09 09:00:35;;;;;;;1.73;0.60;;;;;;;10.55;53.05;101094.38;4938952;28;123575;-69
2022/04/09 09:03:03;;;;;;;4.72;0.70;;;;;;;10.58;53.27;101088.97;4929631;28;115614;-69
2022/04/09 09:05:39;;;;;;;3.03;0.60;;;;;;;10.65;53.25;101095.72;4930562;28;114757;-69
2022/04/09 09:08:09;;;;;;;3.78;0.70;;;;;;;10.73;53.10;101098.06;4945354;28;124126;-69
2022/04/09 09:10:38;;;;;;;4.15;0.70;;;;;;;10.82;53.23;101095.88;4930732;28;124542;-69
2022/04/09 09:13:07;;;;;;;4.38;0.70;;;;;;;10.92;53.28;101104.31;4931815;28;114318;-68
2022/04/09 09:15:52;;;;;;;3.22;0.88;;;;;;;11.03;53.43;101091.47;4942574;28;114185;-68
2022/04/09 09:18:24;;;;;;;2.05;0.60;;;;;;;11.14;53.29;101098.09;4929232;28;124585;-68
2022/04/09 09:20:56;;;;;;;4.72;1.00;;;;;;;11.26;53.33;101092.25;4930962;28;123893;-68
2022/04/09 09:23:30;;;;;;;4.35;1.10;;;;;;;11.37;52.81;101100.59;4931510;28;114933;-68
2022/04/09 09:25:59;;;;;;;4.85;1.00;;;;;;;11.46;52.68;101094.88;4932387;28;113830;-68
2022/04/09 09:28:28;;;;;;;4.95;1.00;;;;;;;11.58;52.67;101100.56;4928848;28;124112;-68
2022/04/09 09:30:56;;;;;;;4.30;1.35;;;;;;;11.72;52.68;101107.91;4929925;28;123837;-68
2022/04/09 09:33:25;;;;;;;4.55;1.30;;;;;;;11.83;52.53;101103.84;4930122;28;114469;-68
2022/04/09 09:36:12;;;;;;;3.15;1.08;;;;;;;11.97;52.46;101100.56;4939264;28;113634;-68
2022/04/09 09:38:40;;;;;;;5.55;1.25;;;;;;;12.07;52.20;101101.88;4936533;28;124039;-68
2022/04/09 09:41:25;;;;;;;2.13;1.10;;;;;;;12.20;52.33;101101.28;4937487;28;124328;-68
2022/04/09 09:44:06;;;;;;;6.70;1.15;;;;;;;12.38;52.18;101088.91;4938313;28;114475;-68
2022/04/09 09:46:34;;;;;;;5.68;1.55;;;;;;;12.51;52.00;101089.16;4934033;28;113996;-68
2022/04/09 09:49:01;;;;;;;5.03;1.30;;;;;;;12.63;51.80;101094.72;4937092;28;124177;-68
2022/04/09 09:51:28;;;;;;;3.25;1.00;;;;;;;12.70;51.81;101095.28;4953575;28;123937;-68
2022/04/09 09:54:07;;;;;;;6.72;1.02;;;;;;;12.72;50.78;101120.00;4936222;28;115164;-67
2022/04/09 09:56:39;;;;;;;3.38;0.82;;;;;;;12.68;50.50;101117.53;4931036;28;114998;-67
2022/04/09 09:59:07;;;;;;;1.27;0.80;;;;;;;12.59;49.95;101135.66;4953937;28;122894;-67
2022/04/09 10:01:36;;;;;;;2.42;0.60;;;;;;;12.51;49.98;101145.81;4943148;28;124214;-68
2022/04/09 10:04:05;;;;;;;3.35;0.60;;;;;;;12.44;50.01;101141.72;4938772;28;114771;-68
2022/04/09 10:06:33;;;;;;;2.40;0.77;;;;;;;12.37;49.88;101146.47;4948440;28;114317;-68
2022/04/09 10:09:05;;;;;;;2.17;0.70;;;;;;;12.34;49.74;101140.44;4944622;28;124714;-67
2022/04/09 10:11:37;;;;;;;0.93;0.55;;;;;;;12.31;49.85;101145.91;4935855;28;123874;-68
2022/04/09 10:14:04;;;;;;;2.15;1.00;;;;;;;12.31;50.05;101145.91;4938921;28;114088;-68
2022/04/09 10:16:35;;;;;;;3.85;0.80;;;;;;;12.38;50.33;101139.38;4944355;28;113819;-67
2022/04/09 10:19:05;;;;;;;3.38;0.90;;;;;;;12.47;50.30;101141.59;4937151;28;124791;-67
2022/04/09 10:21:39;;;;;;;3.67;1.00;;;;;;;12.57;50.40;101148.19;4939509;28;124162;-67
2022/04/09 10:24:16;;;;;;;3.15;0.93;;;;;;;12.64;50.44;101144.28;4937432;28;114046;-67
2022/04/09 10:26:43;;;;;;;4.65;0.80;;;;;;;12.75;50.33;101150.88;4944380;28;114183;-67
2022/04/09 10:29:11;;;;;;;2.92;0.80;;;;;;;12.87;50.26;101144.94;4932586;28;124587;-67
2022/04/09 10:31:40;;;;;;;3.22;1.00;;;;;;;12.97;49.81;101151.50;4930996;28;124236;-67
2022/04/09 10:34:12;;;;;;;4.45;0.98;;;;;;;13.02;49.52;101149.50;4951779;28;113000;-66
2022/04/09 10:36:45;;;;;;;4.38;0.98;;;;;;;13.04;49.27;101152.94;4931617;28;113900;-67
2022/04/09 10:39:19;;;;;;;3.47;1.10;;;;;;;13.07;49.31;101151.91;4932252;28;124800;-67
2022/04/09 10:41:46;;;;;;;4.75;1.05;;;;;;;13.13;49.24;101145.41;4935306;28;124011;-67
2022/04/09 10:44:36;;;;;;;3.42;1.27;;;;;;;13.22;49.56;101147.59;4937039;28;115090;-66
2022/04/09 10:47:03;;;;;;;5.80;1.20;;;;;;;13.37;49.55;101138.91;4955981;28;113901;-66
2022/04/09 10:49:31;;;;;;;4.07;1.05;;;;;;;13.51;49.37;101139.97;4957012;28;122972;-67
2022/04/09 10:52:28;;;;;;;2.40;1.02;;;;;;;13.66;49.44;101136.50;4931217;28;124572;-66
2022/04/09 10:55:10;;;;;;;6.18;1.48;;;;;;;13.82;49.11;101129.41;4934382;28;114426;-67
2022/04/09 10:57:45;;;;;;;4.78;1.00;;;;;;;13.93;48.81;101125.28;4955446;28;114168;-67
2022/04/09 11:00:31;;;;;;;5.68;1.10;;;;;;;14.05;49.06;101119.28;4940859;28;124844;-67
2022/04/09 11:03:13;;;;;;;4.88;1.30;;;;;;;14.16;48.22;101148.84;4935661;28;123711;-67
2022/04/09 11:05:41;;;;;;;3.88;0.90;;;;;;;14.21;47.59;101141.47;4933712;28;113960;-67
2022/04/09 11:08:10;;;;;;;2.20;0.82;;;;;;;14.25;47.94;101168.81;4943959;28;114239;-67
2022/04/09 11:10:37;;;;;;;1.63;0.90;;;;;;;14.18;47.26;101168.28;4952797;28;124172;-67
2022/04/09 11:13:12;;;;;;;1.75;0.65;;;;;;;14.00;47.14;101158.63;4951506;28;124637;-66
2022/04/09 11:15:54;;;;;;;3.23;0.80;;;;;;;13.78;47.11;101165.09;4948666;28;114175;-67
2022/04/09 11:18:22;;;;;;;4.63;0.80;;;;;;;13.66;47.43;101160.44;4931609;28;114063;-66
2022/04/09 11:20:49;;;;;;;2.35;0.85;;;;;;;13.57;47.56;101155.59;4933050;28;124115;-66
2022/04/09 11:23:16;;;;;;;6.03;0.93;;;;;;;13.54;48.00;101161.97;4946542;28;124934;-66
2022/04/09 11:25:44;;;;;;;1.88;0.80;;;;;;;13.56;48.23;101160.09;4931275;28;114809;-66
2022/04/09 11:28:18;;;;;;;1.85;1.10;;;;;;;13.62;48.26;101158.91;4953992;28;114274;-67
2022/04/09 11:31:04;;;;;;;4.97;1.05;;;;;;;13.68;48.26;101153.25;4952886;28;124817;-67
2022/04/09 11:33:32;;;;;;;4.20;1.00;;;;;;;13.73;48.51;101166.28;4930944;28;123946;-67